Kiamichi, Oklahoma
Current Conditions -  °F | °C
As of 3:35 AM on Saturday 20 Dec 2014 (Local Time) from KRKR Reporting Station
Haze Haze  
Wind Chill: 42°   Ceiling: 300
Heat Index: 42°   Visibility: 3mi
Dew Point: 40°   Wind: 0mph
Humidity: 93%   Direction: NA
Pressure: 30.22"   Gusts: NA
Location:  34.5987°N, 94.9886°W
Report Text: KRKR 200935Z AUTO 00000KT 3SM BR OVC003 06/05 A3022 RMK AO2 T00550045
Loading
Personal Weather Stations






























Interactive Weather Map New forecast layout! Learn more

10-Day Weather Forecast

Advertisements
Track Severe Weather on mobile